createdAt,value
2018-03-17T00:00:11.665Z,96613
2018-03-17T00:02:40.691Z,96617
2018-03-17T00:05:08.921Z,96618
2018-03-17T00:07:37.915Z,96619
2018-03-17T00:10:06.859Z,96628
2018-03-17T00:12:35.103Z,96629
2018-03-17T00:15:03.318Z,96630
2018-03-17T00:17:31.530Z,96624
2018-03-17T00:20:00.506Z,96623
2018-03-17T00:22:28.778Z,96625
2018-03-17T00:24:56.988Z,96629
2018-03-17T00:27:26.008Z,96630
2018-03-17T00:29:54.273Z,96631
2018-03-17T00:32:22.542Z,96628
2018-03-17T00:34:50.783Z,96624
2018-03-17T00:37:19.012Z,96622
2018-03-17T00:39:47.249Z,96632
2018-03-17T00:42:16.233Z,96629
2018-03-17T00:44:44.544Z,96631
2018-03-17T00:47:12.764Z,96624
2018-03-17T00:49:40.974Z,96626
2018-03-17T00:52:09.955Z,96625
2018-03-17T00:54:38.138Z,96629
2018-03-17T00:57:08.302Z,96634
2018-03-17T00:59:36.500Z,96631
2018-03-17T01:02:04.800Z,96629
2018-03-17T01:04:32.984Z,96622
2018-03-17T01:07:01.977Z,96626
2018-03-17T01:09:30.964Z,96632
2018-03-17T01:12:00.079Z,96626
2018-03-17T01:14:29.043Z,96632
2018-03-17T01:16:57.271Z,96630
2018-03-17T01:19:25.562Z,96624
2018-03-17T01:21:53.778Z,96618
2018-03-17T01:24:22.142Z,96613
2018-03-17T01:26:50.352Z,96611
2018-03-17T01:29:19.726Z,96609
2018-03-17T01:31:47.953Z,96608
2018-03-17T01:34:16.175Z,96610
2018-03-17T01:36:44.390Z,96609
2018-03-17T01:39:12.612Z,96607
2018-03-17T01:41:40.842Z,96604
2018-03-17T01:44:09.371Z,96605
2018-03-17T01:46:37.626Z,96604
2018-03-17T01:49:05.822Z,96605
2018-03-17T01:51:34.114Z,96599
2018-03-17T01:54:19.961Z,96596
2018-03-17T01:56:48.184Z,96594
2018-03-17T01:59:17.185Z,96597
2018-03-17T02:01:46.164Z,96589
2018-03-17T02:04:14.494Z,96587
2018-03-17T02:06:42.696Z,96584
2018-03-17T02:09:10.897Z,96580
2018-03-17T02:11:39.128Z,96575
2018-03-17T02:14:07.396Z,96576
2018-03-17T02:16:36.718Z,96569
2018-03-17T02:19:04.946Z,96573
2018-03-17T02:21:33.937Z,96576
2018-03-17T02:24:02.952Z,96569
2018-03-17T02:26:31.156Z,96560
2018-03-17T02:28:59.416Z,96562
2018-03-17T02:31:27.643Z,96559
2018-03-17T02:33:55.852Z,96556
2018-03-17T02:36:24.064Z,96559
2018-03-17T02:38:52.274Z,96560
2018-03-17T02:41:20.471Z,96550
2018-03-17T02:43:49.474Z,96547
2018-03-17T02:46:17.736Z,96551
2018-03-17T02:48:46.719Z,96550
2018-03-17T02:51:15.820Z,96553
2018-03-17T02:53:45.426Z,96551
2018-03-17T02:56:13.676Z,96553
2018-03-17T02:58:41.868Z,96550
2018-03-17T03:01:10.100Z,96557
2018-03-17T03:03:38.284Z,96564
2018-03-17T03:06:06.483Z,96560
2018-03-17T03:08:34.683Z,96560
2018-03-17T03:11:03.666Z,96557
2018-03-17T03:13:31.952Z,96559
2018-03-17T03:16:00.929Z,96558
2018-03-17T03:18:29.159Z,96558
2018-03-17T03:20:57.429Z,96559
2018-03-17T03:23:25.627Z,96565
2018-03-17T03:25:53.838Z,96566
2018-03-17T03:28:22.224Z,96569
2018-03-17T03:30:51.203Z,96576
2018-03-17T03:33:19.604Z,96579
2018-03-17T03:35:48.875Z,96576
2018-03-17T03:38:17.112Z,96577
2018-03-17T03:40:46.104Z,96580
2018-03-17T03:43:14.312Z,96578
2018-03-17T03:45:43.286Z,96579
2018-03-17T03:48:11.857Z,96576
2018-03-17T03:50:40.063Z,96573
2018-03-17T03:53:08.246Z,96581
2018-03-17T03:55:36.469Z,96583
2018-03-17T03:58:04.695Z,96582
2018-03-17T04:00:32.912Z,96578
2018-03-17T04:03:01.117Z,96577
2018-03-17T04:05:29.332Z,96567
2018-03-17T04:07:57.530Z,96564
2018-03-17T04:10:25.738Z,96564
2018-03-17T04:12:53.936Z,96568
2018-03-17T04:15:22.141Z,96564
2018-03-17T04:17:51.199Z,96559
2018-03-17T04:20:20.417Z,96552
2018-03-17T04:22:50.195Z,96556
2018-03-17T04:25:18.427Z,96552
2018-03-17T04:27:47.924Z,96554
2018-03-17T04:30:16.908Z,96549
2018-03-17T04:32:45.131Z,96553
2018-03-17T04:35:13.350Z,96554
2018-03-17T04:37:41.562Z,96548
2018-03-17T04:40:09.842Z,96549
2018-03-17T04:42:38.331Z,96550
2018-03-17T04:45:06.540Z,96545
2018-03-17T04:47:34.764Z,96549
2018-03-17T04:50:03.761Z,96547
2018-03-17T04:52:31.963Z,96549
2018-03-17T04:55:00.183Z,96546
2018-03-17T04:57:28.378Z,96552
2018-03-17T04:59:57.404Z,96551
2018-03-17T05:02:26.386Z,96551
2018-03-17T05:04:55.526Z,96551
2018-03-17T05:07:23.752Z,96548
2018-03-17T05:09:52.063Z,96549
2018-03-17T05:12:20.256Z,96544
2018-03-17T05:14:48.487Z,96543
2018-03-17T05:17:16.734Z,96542
2018-03-17T05:19:46.680Z,96547
2018-03-17T05:22:14.950Z,96549
2018-03-17T05:24:43.132Z,96544
2018-03-17T05:27:11.378Z,96539
2018-03-17T05:29:40.342Z,96535
2018-03-17T05:32:08.584Z,96535
2018-03-17T05:34:36.796Z,96530
2018-03-17T05:37:05.138Z,96533
2018-03-17T05:39:33.439Z,96526
2018-03-17T05:42:01.719Z,96526
2018-03-17T05:44:29.922Z,96525
2018-03-17T05:46:58.136Z,96528
2018-03-17T05:49:26.354Z,96528
2018-03-17T05:51:54.539Z,96525
2018-03-17T05:54:22.780Z,96522
2018-03-17T05:56:51.012Z,96527
2018-03-17T05:59:20.096Z,96532
2018-03-17T06:01:49.128Z,96535
2018-03-17T06:04:17.385Z,96537
2018-03-17T06:06:45.589Z,96541
2018-03-17T06:09:13.824Z,96544
2018-03-17T06:11:42.811Z,96542
2018-03-17T06:14:11.928Z,96549
2018-03-17T06:16:40.149Z,96545
2018-03-17T06:19:08.376Z,96549
2018-03-17T06:21:36.670Z,96548
2018-03-17T06:24:04.891Z,96544
2018-03-17T06:26:33.100Z,96532
2018-03-17T06:29:02.222Z,96525
2018-03-17T06:31:30.565Z,96518
2018-03-17T06:33:59.542Z,96525
2018-03-17T06:36:27.797Z,96527
2018-03-17T06:38:56.005Z,96526
2018-03-17T06:41:24.992Z,96526
2018-03-17T06:43:53.993Z,96517
2018-03-17T06:46:22.978Z,96513
2018-03-17T06:48:52.015Z,96511
2018-03-17T06:51:20.219Z,96509
2018-03-17T06:53:48.448Z,96511
2018-03-17T06:56:16.794Z,96506
2018-03-17T06:58:44.993Z,96507
2018-03-17T07:01:13.966Z,96505
2018-03-17T07:03:42.929Z,96513
2018-03-17T07:06:11.157Z,96505
2018-03-17T07:08:39.355Z,96507
2018-03-17T07:11:07.701Z,96510
2018-03-17T07:13:36.669Z,96515
2018-03-17T07:16:04.999Z,96511
2018-03-17T07:18:33.297Z,96511
2018-03-17T07:21:01.517Z,96511
2018-03-17T07:23:30.494Z,96516
2018-03-17T07:25:58.749Z,96517
2018-03-17T07:28:27.016Z,96523
2018-03-17T07:30:55.270Z,96522
2018-03-17T07:33:23.523Z,96521
2018-03-17T07:35:52.491Z,96520
2018-03-17T07:38:20.776Z,96518
2018-03-17T07:40:49.002Z,96520
2018-03-17T07:43:17.216Z,96525
2018-03-17T07:45:45.460Z,96526
2018-03-17T07:48:13.712Z,96524
2018-03-17T07:50:41.980Z,96520
2018-03-17T07:53:10.191Z,96512
2018-03-17T07:55:38.371Z,96508
2018-03-17T07:58:06.701Z,96516
2018-03-17T08:00:34.954Z,96511
2018-03-17T08:03:03.237Z,96510
2018-03-17T08:05:32.210Z,96513
2018-03-17T08:08:00.528Z,96516
2018-03-17T08:10:28.791Z,96513
2018-03-17T08:12:57.064Z,96519
2018-03-17T08:15:26.065Z,96517
2018-03-17T08:17:55.036Z,96514
2018-03-17T08:20:23.297Z,96513
2018-03-17T08:22:51.529Z,96509
2018-03-17T08:25:19.728Z,96509
2018-03-17T08:27:47.984Z,96506
2018-03-17T08:30:16.185Z,96509
2018-03-17T08:32:44.421Z,96506
2018-03-17T08:35:12.651Z,96501
2018-03-17T08:37:40.872Z,96509
2018-03-17T08:40:09.093Z,96509
2018-03-17T08:42:37.297Z,96501
2018-03-17T08:45:05.527Z,96498
2018-03-17T08:47:33.750Z,96497
2018-03-17T08:50:02.101Z,96495
2018-03-17T08:52:31.085Z,96496
2018-03-17T08:54:59.317Z,96493
2018-03-17T08:57:27.606Z,96485
2018-03-17T08:59:56.610Z,96487
2018-03-17T09:02:25.561Z,96477
2018-03-17T11:07:06.283Z,96432
2018-03-17T11:09:41.280Z,96434
2018-03-17T11:12:17.760Z,96436
2018-03-17T11:14:49.703Z,96449
2018-03-17T11:17:24.288Z,96449
2018-03-17T11:19:56.483Z,96449
2018-03-17T11:22:30.356Z,96443
2018-03-17T11:25:04.353Z,96443
2018-03-17T11:27:38.755Z,96441
2018-03-17T11:30:11.674Z,96435
2018-03-17T11:32:44.579Z,96436
2018-03-17T11:35:17.961Z,96438
2018-03-17T11:37:52.781Z,96446
2018-03-17T11:40:26.097Z,96452
2018-03-17T11:42:59.114Z,96443
2018-03-17T11:45:32.344Z,96443
2018-03-17T11:48:08.317Z,96452
2018-03-17T11:50:41.442Z,96441
2018-03-17T11:53:14.477Z,96445
2018-03-17T11:55:48.917Z,96442
2018-03-17T11:58:22.538Z,96443
2018-03-17T12:00:57.678Z,96442
2018-03-17T12:03:30.563Z,96436
2018-03-17T12:06:03.436Z,96437
2018-03-17T12:08:36.675Z,96428
2018-03-17T12:11:14.001Z,96427
2018-03-17T12:13:49.614Z,96422
2018-03-17T12:16:25.217Z,96429
2018-03-17T12:19:02.023Z,96418
2018-03-17T12:21:38.583Z,96419
2018-03-17T12:24:13.605Z,96420
2018-03-17T12:26:46.617Z,96418
2018-03-17T12:29:20.822Z,96414
2018-03-17T12:31:55.861Z,96418
2018-03-17T12:34:28.970Z,96421
2018-03-17T12:37:01.064Z,96411
2018-03-17T12:39:35.604Z,96413
2018-03-17T12:42:10.037Z,96410
2018-03-17T12:44:44.383Z,96401
2018-03-17T12:47:17.402Z,96391
2018-03-17T12:49:50.096Z,96383
2018-03-17T12:52:25.303Z,96383
2018-03-17T12:54:58.157Z,96381
2018-03-17T12:57:30.694Z,96373
2018-03-17T13:00:03.161Z,96379
2018-03-17T13:02:39.658Z,96377
2018-03-17T13:05:15.585Z,96377
2018-03-17T13:07:48.803Z,96371
2018-03-17T13:10:24.608Z,96373
2018-03-17T13:12:58.922Z,96380
2018-03-17T13:15:33.682Z,96386
2018-03-17T13:18:08.937Z,96383
2018-03-17T13:20:45.284Z,96385
2018-03-17T13:23:20.817Z,96384
2018-03-17T13:25:56.404Z,96386
2018-03-17T13:28:35.099Z,96392
2018-03-17T13:31:10.125Z,96383
2018-03-17T13:33:44.537Z,96397
2018-03-17T13:39:33.800Z,96403
2018-03-17T13:42:09.368Z,96402
2018-03-17T13:44:43.802Z,96406
2018-03-17T13:47:17.566Z,96411
2018-03-17T13:49:51.858Z,96410
2018-03-17T13:52:25.395Z,96417
2018-03-17T13:54:58.256Z,96415
2018-03-17T13:57:32.062Z,96416
2018-03-17T14:00:06.363Z,96414
2018-03-17T14:02:40.441Z,96407
2018-03-17T14:05:15.224Z,96413
2018-03-17T14:07:49.861Z,96409
2018-03-17T14:10:25.787Z,96403
2018-03-17T14:13:01.020Z,96411
2018-03-17T14:15:35.278Z,96403
2018-03-17T14:18:11.677Z,96409
2018-03-17T14:20:45.921Z,96411
2018-03-17T14:23:19.398Z,96414
2018-03-17T14:25:55.882Z,96401
2018-03-17T14:28:29.934Z,96402
2018-03-17T14:31:04.556Z,96405
2018-03-17T14:33:39.253Z,96405
2018-03-17T14:36:13.639Z,96402
2018-03-17T14:38:48.363Z,96404
2018-03-17T14:41:22.402Z,96410
2018-03-17T14:43:56.869Z,96409
2018-03-17T14:46:29.444Z,96409
2018-03-17T14:49:04.220Z,96408
2018-03-17T14:51:39.353Z,96415
2018-03-17T14:54:13.383Z,96401
2018-03-17T14:56:46.188Z,96410
2018-03-17T14:59:19.336Z,96408
2018-03-17T15:01:52.082Z,96411
2018-03-17T15:04:27.064Z,96416
2018-03-17T15:07:01.307Z,96414
2018-03-17T15:09:34.384Z,96414
2018-03-17T15:12:08.140Z,96406
2018-03-17T15:14:42.125Z,96412
2018-03-17T15:17:14.403Z,96426
2018-03-17T15:19:52.519Z,96426
2018-03-17T15:22:25.815Z,96433
2018-03-17T15:25:00.642Z,96432
2018-03-17T15:27:35.748Z,96437
2018-03-17T15:30:08.959Z,96429
2018-03-17T15:32:42.439Z,96437
2018-03-17T15:35:15.443Z,96433
2018-03-17T15:37:47.898Z,96434
2018-03-17T15:40:21.657Z,96433
2018-03-17T15:42:55.661Z,96437
2018-03-17T15:45:31.580Z,96438
2018-03-17T15:48:09.752Z,96443
2018-03-17T15:50:43.822Z,96440
2018-03-17T15:53:19.068Z,96430
2018-03-17T15:55:54.241Z,96432
2018-03-17T15:58:29.841Z,96428
2018-03-17T16:01:03.496Z,96422
2018-03-17T16:03:38.779Z,96422
2018-03-17T16:06:12.801Z,96418
2018-03-17T16:08:46.158Z,96427
2018-03-17T16:11:19.267Z,96428
2018-03-17T16:13:53.962Z,96434
2018-03-17T16:16:29.958Z,96432
2018-03-17T16:19:04.854Z,96444
2018-03-17T16:21:39.677Z,96441
2018-03-17T16:24:16.143Z,96446
2018-03-17T16:26:56.482Z,96445
2018-03-17T16:29:31.254Z,96445
2018-03-17T16:32:06.786Z,96449
2018-03-17T16:34:40.184Z,96448
2018-03-17T16:37:14.984Z,96455
2018-03-17T16:39:48.481Z,96458
2018-03-17T16:42:22.743Z,96467
2018-03-17T16:45:01.235Z,96467
2018-03-17T16:47:34.699Z,96457
2018-03-17T16:50:09.720Z,96459
2018-03-17T16:52:42.420Z,96465
2018-03-17T16:55:16.460Z,96466
2018-03-17T16:57:50.702Z,96473
2018-03-17T17:00:24.102Z,96488
2018-03-17T17:03:02.098Z,96491
2018-03-17T17:05:34.806Z,96486
2018-03-17T17:08:08.003Z,96485
2018-03-17T17:10:42.724Z,96497
2018-03-17T17:13:16.181Z,96498
2018-03-17T17:15:49.098Z,96498
2018-03-17T17:18:23.019Z,96502
2018-03-17T17:20:56.357Z,96502
2018-03-17T17:23:30.379Z,96506
2018-03-17T17:26:05.341Z,96507
2018-03-17T17:28:38.041Z,96505
2018-03-17T17:31:13.400Z,96511
2018-03-17T17:33:48.599Z,96514
2018-03-17T17:36:22.261Z,96520
2018-03-17T17:38:55.802Z,96520
2018-03-17T17:41:34.565Z,96525
2018-03-17T17:44:08.658Z,96525
2018-03-17T17:46:40.925Z,96526
2018-03-17T17:49:15.858Z,96528
2018-03-17T17:51:49.983Z,96524
2018-03-17T17:54:24.399Z,96518
2018-03-17T17:56:56.564Z,96524
2018-03-17T17:59:28.885Z,96529
2018-03-17T18:02:02.659Z,96529
2018-03-17T18:04:35.958Z,96522
2018-03-17T18:07:08.476Z,96526
2018-03-17T18:09:42.661Z,96531
2018-03-17T18:12:16.580Z,96534
2018-03-17T18:14:49.961Z,96531
2018-03-17T18:17:21.446Z,96536
2018-03-17T18:19:55.942Z,96539
2018-03-17T18:22:29.722Z,96542
2018-03-17T18:25:04.806Z,96536
2018-03-17T18:27:41.254Z,96538
2018-03-17T18:30:19.568Z,96542
2018-03-17T18:32:50.431Z,96541
2018-03-17T18:35:25.272Z,96550
2018-03-17T18:38:00.644Z,96542
2018-03-17T18:40:37.517Z,96553
2018-03-17T18:45:43.181Z,96542
2018-03-17T18:48:13.592Z,96542
2018-03-17T18:50:43.571Z,96558
2018-03-17T18:53:14.857Z,96545
2018-03-17T18:55:45.471Z,96549
2018-03-17T18:58:16.648Z,96550
2018-03-17T19:00:46.844Z,96564
2018-03-17T19:03:21.426Z,96558
2018-03-17T19:05:53.841Z,96553
2018-03-17T19:08:26.144Z,96563
2018-03-17T19:11:02.164Z,96565
2018-03-17T19:13:36.507Z,96568
2018-03-17T19:16:09.769Z,96568
2018-03-17T19:18:43.244Z,96570
2018-03-17T19:21:17.943Z,96567
2018-03-17T19:23:55.404Z,96577
2018-03-17T19:26:26.557Z,96576
2018-03-17T19:28:56.979Z,96579
2018-03-17T19:31:29.059Z,96584
2018-03-17T19:33:59.974Z,96585
2018-03-17T19:36:33.020Z,96586
2018-03-17T19:39:09.457Z,96588
2018-03-17T19:41:39.844Z,96591
2018-03-17T19:44:13.505Z,96588
2018-03-17T19:46:49.783Z,96589
2018-03-17T19:49:25.367Z,96586
2018-03-17T19:51:58.869Z,96589
2018-03-17T19:54:33.718Z,96592
2018-03-17T19:57:06.999Z,96591
2018-03-17T19:59:41.225Z,96585
2018-03-17T20:02:11.355Z,96588
2018-03-17T20:04:41.443Z,96586
2018-03-17T20:07:16.261Z,96592
2018-03-17T20:09:49.307Z,96601
2018-03-17T20:12:22.127Z,96594
2018-03-17T20:15:00.048Z,96598
2018-03-17T20:17:35.544Z,96601
2018-03-17T20:20:11.604Z,96590
2018-03-17T20:22:44.082Z,96596
2018-03-17T20:25:19.187Z,96594
2018-03-17T20:27:53.812Z,96591
2018-03-17T20:30:30.651Z,96592
2018-03-17T20:33:05.023Z,96600
2018-03-17T20:35:37.124Z,96594
2018-03-17T20:38:11.421Z,96581
2018-03-17T20:40:44.840Z,96597
2018-03-17T20:43:19.842Z,96594
2018-03-17T20:45:53.661Z,96591
2018-03-17T20:48:27.058Z,96599
2018-03-17T20:51:01.639Z,96610
2018-03-17T20:53:35.805Z,96605
2018-03-17T20:56:11.099Z,96602
2018-03-17T20:58:45.920Z,96607
2018-03-17T21:01:18.163Z,96602
2018-03-17T21:03:52.037Z,96602
2018-03-17T21:06:26.218Z,96597
2018-03-17T21:08:58.801Z,96600
2018-03-17T21:11:31.920Z,96594
2018-03-17T21:14:06.947Z,96602
2018-03-17T21:16:40.697Z,96601
2018-03-17T21:19:14.238Z,96603
2018-03-17T21:21:47.298Z,96604
2018-03-17T21:24:20.422Z,96595
2018-03-17T21:26:55.095Z,96593
2018-03-17T21:29:27.842Z,96597
2018-03-17T21:32:15.380Z,96598
2018-03-17T21:34:49.920Z,96592
2018-03-17T21:37:24.599Z,96601
2018-03-17T21:39:59.121Z,96603
2018-03-17T21:42:31.395Z,96608
2018-03-17T21:45:06.341Z,96599
2018-03-17T21:47:42.218Z,96598
2018-03-17T21:50:19.862Z,96598
2018-03-17T21:52:54.382Z,96606
2018-03-17T21:55:28.044Z,96606
2018-03-17T21:58:00.887Z,96604
2018-03-17T22:00:37.647Z,96607
2018-03-17T22:03:10.804Z,96606
2018-03-17T22:05:43.276Z,96603
2018-03-17T22:08:16.378Z,96608
2018-03-17T22:10:49.403Z,96607
2018-03-17T22:13:21.998Z,96603
2018-03-17T22:15:55.000Z,96599
2018-03-17T22:18:28.982Z,96599
2018-03-17T22:21:02.223Z,96600
2018-03-17T22:23:34.425Z,96599
2018-03-17T22:26:07.059Z,96597
2018-03-17T22:28:41.519Z,96599
2018-03-17T22:31:13.383Z,96599
2018-03-17T22:33:47.927Z,96594
2018-03-17T22:36:20.878Z,96605
2018-03-17T22:38:53.941Z,96603
2018-03-17T22:41:27.480Z,96600
2018-03-17T22:44:02.208Z,96603
2018-03-17T22:46:35.142Z,96595
2018-03-17T22:49:10.179Z,96599
2018-03-17T22:51:45.882Z,96595
2018-03-17T22:54:18.500Z,96601
2018-03-17T22:56:53.758Z,96599
2018-03-17T22:59:27.175Z,96597
2018-03-17T23:02:00.780Z,96598
2018-03-17T23:04:37.224Z,96602
2018-03-17T23:07:10.336Z,96577
2018-03-17T23:09:42.707Z,96602
2018-03-17T23:12:15.797Z,96600
2018-03-17T23:14:48.915Z,96599
2018-03-17T23:17:21.983Z,96610
2018-03-17T23:19:55.425Z,96596
2018-03-17T23:22:24.320Z,96606
2018-03-17T23:24:56.532Z,96605
2018-03-17T23:27:27.534Z,96598
2018-03-17T23:29:57.915Z,96606
2018-03-17T23:32:28.337Z,96601
2018-03-17T23:35:00.384Z,96604
2018-03-17T23:37:33.401Z,96595
2018-03-17T23:40:06.424Z,96600
2018-03-17T23:42:37.716Z,96593
2018-03-17T23:45:12.180Z,96599
2018-03-17T23:47:47.004Z,96597
2018-03-17T23:50:19.465Z,96597
2018-03-17T23:52:52.201Z,96598
2018-03-17T23:55:25.379Z,96590
2018-03-17T23:58:00.996Z,96599
